sensor_id;sensor_type;location;lat;lon;timestamp;P1;durP1;ratioP1;P2;durP2;ratioP2
24008;SDS011;12217;50.792;4.372;2022-07-01T00:00:37;7.10;;;5.53;;
24008;SDS011;12217;50.792;4.372;2022-07-01T00:03:03;10.40;;;5.07;;
24008;SDS011;12217;50.792;4.372;2022-07-01T00:05:29;6.25;;;5.10;;
24008;SDS011;12217;50.792;4.372;2022-07-01T00:07:55;6.68;;;5.28;;
24008;SDS011;12217;50.792;4.372;2022-07-01T00:10:21;6.60;;;5.07;;
24008;SDS011;12217;50.792;4.372;2022-07-01T00:12:47;8.75;;;4.60;;
24008;SDS011;12217;50.792;4.372;2022-07-01T00:15:13;5.80;;;5.10;;
24008;SDS011;12217;50.792;4.372;2022-07-01T00:17:39;7.47;;;5.30;;
24008;SDS011;12217;50.792;4.372;2022-07-01T00:20:05;9.32;;;5.60;;
24008;SDS011;12217;50.792;4.372;2022-07-01T00:22:33;7.55;;;5.00;;
24008;SDS011;12217;50.792;4.372;2022-07-01T00:24:59;7.00;;;4.70;;
24008;SDS011;12217;50.792;4.372;2022-07-01T00:27:25;8.95;;;5.68;;
24008;SDS011;12217;50.792;4.372;2022-07-01T00:29:51;6.13;;;5.28;;
24008;SDS011;12217;50.792;4.372;2022-07-01T00:32:16;7.30;;;5.30;;
24008;SDS011;12217;50.792;4.372;2022-07-01T00:34:42;10.80;;;5.80;;
24008;SDS011;12217;50.792;4.372;2022-07-01T00:37:08;8.27;;;5.75;;
24008;SDS011;12217;50.792;4.372;2022-07-01T00:39:33;7.13;;;5.57;;
24008;SDS011;12217;50.792;4.372;2022-07-01T00:42:00;9.30;;;6.07;;
24008;SDS011;12217;50.792;4.372;2022-07-01T00:44:27;8.50;;;6.03;;
24008;SDS011;12217;50.792;4.372;2022-07-01T00:46:53;10.15;;;7.13;;
24008;SDS011;12217;50.792;4.372;2022-07-01T00:49:19;10.32;;;6.53;;
24008;SDS011;12217;50.792;4.372;2022-07-01T00:51:45;9.02;;;6.45;;
24008;SDS011;12217;50.792;4.372;2022-07-01T00:54:10;9.25;;;6.93;;
24008;SDS011;12217;50.792;4.372;2022-07-01T00:56:37;9.00;;;6.85;;
24008;SDS011;12217;50.792;4.372;2022-07-01T00:59:03;13.82;;;7.10;;
24008;SDS011;12217;50.792;4.372;2022-07-01T01:01:29;11.63;;;7.13;;
24008;SDS011;12217;50.792;4.372;2022-07-01T01:03:54;12.43;;;7.22;;
24008;SDS011;12217;50.792;4.372;2022-07-01T01:06:21;12.77;;;7.65;;
24008;SDS011;12217;50.792;4.372;2022-07-01T01:08:47;13.65;;;6.85;;
24008;SDS011;12217;50.792;4.372;2022-07-01T01:11:14;13.48;;;7.45;;
24008;SDS011;12217;50.792;4.372;2022-07-01T01:13:41;14.68;;;7.72;;
24008;SDS011;12217;50.792;4.372;2022-07-01T01:16:07;12.40;;;7.82;;
24008;SDS011;12217;50.792;4.372;2022-07-01T01:18:33;12.52;;;8.57;;
24008;SDS011;12217;50.792;4.372;2022-07-01T01:20:59;16.55;;;9.18;;
24008;SDS011;12217;50.792;4.372;2022-07-01T01:23:25;13.60;;;7.72;;
24008;SDS011;12217;50.792;4.372;2022-07-01T01:25:51;13.13;;;8.27;;
24008;SDS011;12217;50.792;4.372;2022-07-01T01:28:16;13.25;;;7.85;;
24008;SDS011;12217;50.792;4.372;2022-07-01T01:30:42;16.23;;;8.65;;
24008;SDS011;12217;50.792;4.372;2022-07-01T01:33:08;12.52;;;8.52;;
24008;SDS011;12217;50.792;4.372;2022-07-01T01:35:36;15.02;;;9.07;;
24008;SDS011;12217;50.792;4.372;2022-07-01T01:38:02;15.25;;;9.07;;
24008;SDS011;12217;50.792;4.372;2022-07-01T01:40:28;18.92;;;9.07;;
24008;SDS011;12217;50.792;4.372;2022-07-01T01:42:54;16.08;;;9.05;;
24008;SDS011;12217;50.792;4.372;2022-07-01T01:45:19;16.30;;;8.80;;
24008;SDS011;12217;50.792;4.372;2022-07-01T01:47:45;13.75;;;9.23;;
24008;SDS011;12217;50.792;4.372;2022-07-01T01:50:11;10.73;;;7.97;;
24008;SDS011;12217;50.792;4.372;2022-07-01T01:52:39;17.20;;;7.97;;
24008;SDS011;12217;50.792;4.372;2022-07-01T01:55:08;16.52;;;8.40;;
24008;SDS011;12217;50.792;4.372;2022-07-01T01:57:34;13.70;;;7.97;;
24008;SDS011;12217;50.792;4.372;2022-07-01T02:00:00;15.65;;;8.40;;
24008;SDS011;12217;50.792;4.372;2022-07-01T02:02:26;14.15;;;8.80;;
24008;SDS011;12217;50.792;4.372;2022-07-01T02:04:52;16.05;;;8.32;;
24008;SDS011;12217;50.792;4.372;2022-07-01T02:07:17;14.77;;;8.75;;
24008;SDS011;12217;50.792;4.372;2022-07-01T02:09:43;13.77;;;8.02;;
24008;SDS011;12217;50.792;4.372;2022-07-01T02:12:09;14.48;;;7.68;;
24008;SDS011;12217;50.792;4.372;2022-07-01T02:14:35;12.45;;;7.75;;
24008;SDS011;12217;50.792;4.372;2022-07-01T02:17:00;12.75;;;7.80;;
24008;SDS011;12217;50.792;4.372;2022-07-01T02:19:26;16.30;;;7.82;;
24008;SDS011;12217;50.792;4.372;2022-07-01T02:21:52;14.25;;;7.22;;
24008;SDS011;12217;50.792;4.372;2022-07-01T02:24:18;12.98;;;7.55;;
24008;SDS011;12217;50.792;4.372;2022-07-01T02:26:43;15.15;;;7.80;;
24008;SDS011;12217;50.792;4.372;2022-07-01T02:29:10;16.73;;;7.43;;
24008;SDS011;12217;50.792;4.372;2022-07-01T02:31:35;14.55;;;7.72;;
24008;SDS011;12217;50.792;4.372;2022-07-01T02:34:01;11.75;;;8.07;;
24008;SDS011;12217;50.792;4.372;2022-07-01T02:36:26;12.55;;;7.43;;
24008;SDS011;12217;50.792;4.372;2022-07-01T02:38:52;14.60;;;7.28;;
24008;SDS011;12217;50.792;4.372;2022-07-01T02:41:18;11.93;;;7.22;;
24008;SDS011;12217;50.792;4.372;2022-07-01T02:43:43;9.73;;;6.53;;
24008;SDS011;12217;50.792;4.372;2022-07-01T02:46:09;13.70;;;6.82;;
24008;SDS011;12217;50.792;4.372;2022-07-01T02:48:35;10.65;;;6.97;;
24008;SDS011;12217;50.792;4.372;2022-07-01T02:51:00;9.88;;;6.10;;
24008;SDS011;12217;50.792;4.372;2022-07-01T02:53:26;9.55;;;6.70;;
24008;SDS011;12217;50.792;4.372;2022-07-01T02:55:52;13.73;;;6.47;;
24008;SDS011;12217;50.792;4.372;2022-07-01T02:58:17;22.52;;;7.47;;
24008;SDS011;12217;50.792;4.372;2022-07-01T03:00:43;10.10;;;6.53;;
24008;SDS011;12217;50.792;4.372;2022-07-01T03:03:09;12.07;;;6.60;;
24008;SDS011;12217;50.792;4.372;2022-07-01T03:05:35;13.82;;;7.00;;
24008;SDS011;12217;50.792;4.372;2022-07-01T03:08:01;9.18;;;5.65;;
24008;SDS011;12217;50.792;4.372;2022-07-01T03:10:27;10.38;;;5.82;;
24008;SDS011;12217;50.792;4.372;2022-07-01T03:12:53;12.55;;;6.28;;
24008;SDS011;12217;50.792;4.372;2022-07-01T03:15:18;11.27;;;6.13;;
24008;SDS011;12217;50.792;4.372;2022-07-01T03:17:45;11.57;;;5.60;;
24008;SDS011;12217;50.792;4.372;2022-07-01T03:20:14;9.93;;;5.50;;
24008;SDS011;12217;50.792;4.372;2022-07-01T03:22:41;10.80;;;5.75;;
24008;SDS011;12217;50.792;4.372;2022-07-01T03:25:07;15.88;;;5.82;;
24008;SDS011;12217;50.792;4.372;2022-07-01T03:27:34;9.32;;;5.63;;
24008;SDS011;12217;50.792;4.372;2022-07-01T03:30:00;12.73;;;6.35;;
24008;SDS011;12217;50.792;4.372;2022-07-01T03:32:27;12.57;;;5.85;;
24008;SDS011;12217;50.792;4.372;2022-07-01T03:34:54;9.60;;;5.65;;
24008;SDS011;12217;50.792;4.372;2022-07-01T03:37:20;11.63;;;6.93;;
24008;SDS011;12217;50.792;4.372;2022-07-01T03:39:46;11.60;;;6.57;;
24008;SDS011;12217;50.792;4.372;2022-07-01T03:42:13;13.32;;;6.70;;
24008;SDS011;12217;50.792;4.372;2022-07-01T03:44:38;11.07;;;6.43;;
24008;SDS011;12217;50.792;4.372;2022-07-01T03:47:05;12.38;;;6.07;;
24008;SDS011;12217;50.792;4.372;2022-07-01T03:49:34;9.68;;;6.32;;
24008;SDS011;12217;50.792;4.372;2022-07-01T03:52:04;13.43;;;6.60;;
24008;SDS011;12217;50.792;4.372;2022-07-01T03:54:30;9.95;;;5.70;;
24008;SDS011;12217;50.792;4.372;2022-07-01T03:56:58;9.95;;;5.93;;
24008;SDS011;12217;50.792;4.372;2022-07-01T03:59:26;6.95;;;5.57;;
24008;SDS011;12217;50.792;4.372;2022-07-01T04:01:53;11.40;;;5.78;;
24008;SDS011;12217;50.792;4.372;2022-07-01T04:04:22;11.52;;;5.97;;
24008;SDS011;12217;50.792;4.372;2022-07-01T04:06:48;10.88;;;6.40;;
24008;SDS011;12217;50.792;4.372;2022-07-01T04:09:15;7.57;;;5.85;;
24008;SDS011;12217;50.792;4.372;2022-07-01T04:11:42;12.98;;;5.90;;
24008;SDS011;12217;50.792;4.372;2022-07-01T04:14:09;8.15;;;5.50;;
24008;SDS011;12217;50.792;4.372;2022-07-01T04:16:35;6.22;;;5.60;;
24008;SDS011;12217;50.792;4.372;2022-07-01T04:19:02;9.02;;;5.95;;
24008;SDS011;12217;50.792;4.372;2022-07-01T04:21:28;10.85;;;5.80;;
24008;SDS011;12217;50.792;4.372;2022-07-01T04:24:12;13.20;;;6.00;;
24008;SDS011;12217;50.792;4.372;2022-07-01T04:26:40;8.82;;;5.60;;
24008;SDS011;12217;50.792;4.372;2022-07-01T04:29:07;6.60;;;5.00;;
24008;SDS011;12217;50.792;4.372;2022-07-01T04:31:33;9.10;;;5.07;;
24008;SDS011;12217;50.792;4.372;2022-07-01T04:34:00;8.88;;;5.18;;
24008;SDS011;12217;50.792;4.372;2022-07-01T04:36:26;9.45;;;4.90;;
24008;SDS011;12217;50.792;4.372;2022-07-01T04:38:52;12.05;;;5.32;;
24008;SDS011;12217;50.792;4.372;2022-07-01T04:41:17;8.35;;;5.22;;
24008;SDS011;12217;50.792;4.372;2022-07-01T04:44:01;6.97;;;4.85;;
24008;SDS011;12217;50.792;4.372;2022-07-01T04:46:28;9.23;;;4.72;;
24008;SDS011;12217;50.792;4.372;2022-07-01T04:48:53;8.38;;;5.07;;
24008;SDS011;12217;50.792;4.372;2022-07-01T04:51:19;6.95;;;4.20;;
24008;SDS011;12217;50.792;4.372;2022-07-01T04:53:45;7.57;;;4.88;;
24008;SDS011;12217;50.792;4.372;2022-07-01T04:56:11;5.95;;;4.88;;
24008;SDS011;12217;50.792;4.372;2022-07-01T04:58:37;4.97;;;4.47;;
24008;SDS011;12217;50.792;4.372;2022-07-01T05:01:02;9.02;;;5.05;;
24008;SDS011;12217;50.792;4.372;2022-07-01T05:03:28;6.28;;;4.30;;
24008;SDS011;12217;50.792;4.372;2022-07-01T05:05:54;7.38;;;4.45;;
24008;SDS011;12217;50.792;4.372;2022-07-01T05:08:19;7.22;;;5.35;;
24008;SDS011;12217;50.792;4.372;2022-07-01T05:10:45;9.98;;;5.30;;
24008;SDS011;12217;50.792;4.372;2022-07-01T05:13:11;9.65;;;4.53;;
24008;SDS011;12217;50.792;4.372;2022-07-01T05:15:37;5.30;;;4.70;;
24008;SDS011;12217;50.792;4.372;2022-07-01T05:18:03;9.55;;;4.70;;
24008;SDS011;12217;50.792;4.372;2022-07-01T05:20:47;6.90;;;5.03;;
24008;SDS011;12217;50.792;4.372;2022-07-01T05:23:31;6.68;;;4.55;;
24008;SDS011;12217;50.792;4.372;2022-07-01T05:25:57;10.73;;;5.55;;
24008;SDS011;12217;50.792;4.372;2022-07-01T05:28:22;10.32;;;5.30;;
24008;SDS011;12217;50.792;4.372;2022-07-01T05:30:48;8.35;;;5.68;;
24008;SDS011;12217;50.792;4.372;2022-07-01T05:33:14;9.13;;;5.28;;
24008;SDS011;12217;50.792;4.372;2022-07-01T05:35:39;9.13;;;4.55;;
24008;SDS011;12217;50.792;4.372;2022-07-01T05:38:05;8.88;;;4.78;;
24008;SDS011;12217;50.792;4.372;2022-07-01T05:40:31;6.15;;;4.82;;
24008;SDS011;12217;50.792;4.372;2022-07-01T05:42:56;7.28;;;4.65;;
24008;SDS011;12217;50.792;4.372;2022-07-01T05:45:23;11.55;;;4.97;;
24008;SDS011;12217;50.792;4.372;2022-07-01T05:47:48;9.35;;;4.40;;
24008;SDS011;12217;50.792;4.372;2022-07-01T05:50:14;9.02;;;4.70;;
24008;SDS011;12217;50.792;4.372;2022-07-01T05:52:40;9.40;;;4.72;;
24008;SDS011;12217;50.792;4.372;2022-07-01T05:55:09;7.35;;;4.50;;
24008;SDS011;12217;50.792;4.372;2022-07-01T05:57:35;9.82;;;4.63;;
24008;SDS011;12217;50.792;4.372;2022-07-01T06:00:01;8.75;;;4.60;;
24008;SDS011;12217;50.792;4.372;2022-07-01T06:02:28;11.10;;;4.88;;
24008;SDS011;12217;50.792;4.372;2022-07-01T06:04:53;10.90;;;4.75;;
24008;SDS011;12217;50.792;4.372;2022-07-01T06:07:19;11.52;;;4.78;;
24008;SDS011;12217;50.792;4.372;2022-07-01T06:09:45;11.25;;;5.00;;
24008;SDS011;12217;50.792;4.372;2022-07-01T06:12:10;11.10;;;4.43;;
24008;SDS011;12217;50.792;4.372;2022-07-01T06:14:36;12.10;;;5.35;;
24008;SDS011;12217;50.792;4.372;2022-07-01T06:17:03;10.30;;;4.47;;
24008;SDS011;12217;50.792;4.372;2022-07-01T06:19:29;8.57;;;4.22;;
24008;SDS011;12217;50.792;4.372;2022-07-01T06:21:55;10.27;;;4.57;;
24008;SDS011;12217;50.792;4.372;2022-07-01T06:24:21;6.95;;;4.60;;
24008;SDS011;12217;50.792;4.372;2022-07-01T06:26:47;10.07;;;4.10;;
24008;SDS011;12217;50.792;4.372;2022-07-01T06:29:13;11.60;;;4.07;;
24008;SDS011;12217;50.792;4.372;2022-07-01T06:31:39;9.60;;;3.53;;
24008;SDS011;12217;50.792;4.372;2022-07-01T06:34:06;8.82;;;3.80;;
24008;SDS011;12217;50.792;4.372;2022-07-01T06:36:32;7.90;;;3.80;;
24008;SDS011;12217;50.792;4.372;2022-07-01T06:38:58;9.18;;;3.92;;
24008;SDS011;12217;50.792;4.372;2022-07-01T06:41:23;12.30;;;4.68;;
24008;SDS011;12217;50.792;4.372;2022-07-01T06:43:52;7.18;;;3.95;;
24008;SDS011;12217;50.792;4.372;2022-07-01T06:46:24;10.57;;;3.95;;
24008;SDS011;12217;50.792;4.372;2022-07-01T06:48:50;12.02;;;3.75;;
24008;SDS011;12217;50.792;4.372;2022-07-01T06:51:16;7.88;;;3.75;;
24008;SDS011;12217;50.792;4.372;2022-07-01T06:53:42;7.00;;;3.00;;
24008;SDS011;12217;50.792;4.372;2022-07-01T06:56:10;5.47;;;3.10;;
24008;SDS011;12217;50.792;4.372;2022-07-01T06:58:36;10.88;;;3.22;;
24008;SDS011;12217;50.792;4.372;2022-07-01T07:03:42;8.65;;;3.38;;
24008;SDS011;12217;50.792;4.372;2022-07-01T07:06:08;4.90;;;2.85;;
24008;SDS011;12217;50.792;4.372;2022-07-01T07:08:33;7.18;;;2.78;;
24008;SDS011;12217;50.792;4.372;2022-07-01T07:10:59;6.63;;;2.80;;
24008;SDS011;12217;50.792;4.372;2022-07-01T07:13:25;9.20;;;2.58;;
24008;SDS011;12217;50.792;4.372;2022-07-01T07:15:51;8.63;;;2.70;;
24008;SDS011;12217;50.792;4.372;2022-07-01T07:18:17;9.65;;;3.08;;
24008;SDS011;12217;50.792;4.372;2022-07-01T07:20:43;7.18;;;2.72;;
24008;SDS011;12217;50.792;4.372;2022-07-01T07:23:09;6.82;;;2.17;;
24008;SDS011;12217;50.792;4.372;2022-07-01T07:25:34;5.00;;;1.70;;
24008;SDS011;12217;50.792;4.372;2022-07-01T07:28:00;8.15;;;2.50;;
24008;SDS011;12217;50.792;4.372;2022-07-01T07:30:26;5.30;;;1.83;;
24008;SDS011;12217;50.792;4.372;2022-07-01T07:32:51;6.47;;;1.92;;
24008;SDS011;12217;50.792;4.372;2022-07-01T07:35:17;5.53;;;1.85;;
24008;SDS011;12217;50.792;4.372;2022-07-01T07:37:43;7.28;;;1.90;;
24008;SDS011;12217;50.792;4.372;2022-07-01T07:40:10;5.22;;;1.67;;
24008;SDS011;12217;50.792;4.372;2022-07-01T07:42:37;2.42;;;1.73;;
24008;SDS011;12217;50.792;4.372;2022-07-01T07:45:04;10.68;;;1.92;;
24008;SDS011;12217;50.792;4.372;2022-07-01T07:47:32;3.55;;;1.70;;
24008;SDS011;12217;50.792;4.372;2022-07-01T07:49:58;5.15;;;1.80;;
24008;SDS011;12217;50.792;4.372;2022-07-01T07:52:24;6.32;;;1.48;;
24008;SDS011;12217;50.792;4.372;2022-07-01T07:54:49;4.38;;;1.90;;
24008;SDS011;12217;50.792;4.372;2022-07-01T07:57:15;8.75;;;2.00;;
24008;SDS011;12217;50.792;4.372;2022-07-01T07:59:41;5.82;;;1.25;;
24008;SDS011;12217;50.792;4.372;2022-07-01T08:02:07;9.15;;;1.55;;
24008;SDS011;12217;50.792;4.372;2022-07-01T08:04:32;6.18;;;1.42;;
24008;SDS011;12217;50.792;4.372;2022-07-01T08:06:58;5.13;;;1.20;;
24008;SDS011;12217;50.792;4.372;2022-07-01T08:09:24;7.60;;;1.42;;
24008;SDS011;12217;50.792;4.372;2022-07-01T08:11:50;3.92;;;1.65;;
24008;SDS011;12217;50.792;4.372;2022-07-01T08:14:15;9.60;;;2.20;;
24008;SDS011;12217;50.792;4.372;2022-07-01T08:16:41;4.00;;;1.63;;
24008;SDS011;12217;50.792;4.372;2022-07-01T08:19:07;5.30;;;1.30;;
24008;SDS011;12217;50.792;4.372;2022-07-01T08:21:33;6.65;;;1.50;;
24008;SDS011;12217;50.792;4.372;2022-07-01T08:23:58;5.82;;;1.38;;
24008;SDS011;12217;50.792;4.372;2022-07-01T08:26:24;3.33;;;1.10;;
24008;SDS011;12217;50.792;4.372;2022-07-01T08:28:50;4.88;;;1.20;;
24008;SDS011;12217;50.792;4.372;2022-07-01T08:31:15;6.03;;;1.30;;
24008;SDS011;12217;50.792;4.372;2022-07-01T08:33:41;5.25;;;1.20;;
24008;SDS011;12217;50.792;4.372;2022-07-01T08:36:07;5.38;;;1.10;;
24008;SDS011;12217;50.792;4.372;2022-07-01T08:38:34;5.10;;;1.20;;
24008;SDS011;12217;50.792;4.372;2022-07-01T08:41:00;6.20;;;1.38;;
24008;SDS011;12217;50.792;4.372;2022-07-01T08:43:27;5.40;;;1.10;;
24008;SDS011;12217;50.792;4.372;2022-07-01T08:45:53;7.53;;;1.40;;
24008;SDS011;12217;50.792;4.372;2022-07-01T08:48:19;4.78;;;1.30;;
24008;SDS011;12217;50.792;4.372;2022-07-01T08:50:45;5.93;;;1.50;;
24008;SDS011;12217;50.792;4.372;2022-07-01T08:53:11;3.50;;;1.27;;
24008;SDS011;12217;50.792;4.372;2022-07-01T08:55:38;2.95;;;1.30;;
24008;SDS011;12217;50.792;4.372;2022-07-01T08:58:24;4.78;;;1.52;;
24008;SDS011;12217;50.792;4.372;2022-07-01T09:00:51;9.60;;;1.35;;
24008;SDS011;12217;50.792;4.372;2022-07-01T09:03:21;6.32;;;1.42;;
24008;SDS011;12217;50.792;4.372;2022-07-01T09:05:49;4.40;;;1.40;;
24008;SDS011;12217;50.792;4.372;2022-07-01T09:08:16;4.28;;;1.80;;
24008;SDS011;12217;50.792;4.372;2022-07-01T09:10:43;3.63;;;1.70;;
24008;SDS011;12217;50.792;4.372;2022-07-01T09:13:10;5.35;;;1.70;;
24008;SDS011;12217;50.792;4.372;2022-07-01T09:15:38;5.40;;;1.80;;
24008;SDS011;12217;50.792;4.372;2022-07-01T09:20:35;4.22;;;1.70;;
24008;SDS011;12217;50.792;4.372;2022-07-01T09:23:03;6.97;;;1.73;;
24008;SDS011;12217;50.792;4.372;2022-07-01T09:25:40;3.50;;;1.60;;
24008;SDS011;12217;50.792;4.372;2022-07-01T09:28:14;7.00;;;2.05;;
24008;SDS011;12217;50.792;4.372;2022-07-01T09:30:45;3.88;;;1.60;;
24008;SDS011;12217;50.792;4.372;2022-07-01T09:33:16;5.78;;;1.88;;
24008;SDS011;12217;50.792;4.372;2022-07-01T09:35:44;3.95;;;1.77;;
24008;SDS011;12217;50.792;4.372;2022-07-01T09:38:12;4.65;;;1.85;;
24008;SDS011;12217;50.792;4.372;2022-07-01T09:43:20;7.55;;;1.63;;
24008;SDS011;12217;50.792;4.372;2022-07-01T09:48:16;5.50;;;1.63;;
24008;SDS011;12217;50.792;4.372;2022-07-01T09:50:42;3.70;;;1.80;;
24008;SDS011;12217;50.792;4.372;2022-07-01T09:53:09;4.60;;;1.90;;
24008;SDS011;12217;50.792;4.372;2022-07-01T09:55:35;3.88;;;1.92;;
24008;SDS011;12217;50.792;4.372;2022-07-01T09:58:02;7.47;;;1.95;;
24008;SDS011;12217;50.792;4.372;2022-07-01T10:00:29;5.40;;;2.22;;
24008;SDS011;12217;50.792;4.372;2022-07-01T10:02:57;4.30;;;2.53;;
24008;SDS011;12217;50.792;4.372;2022-07-01T10:05:25;5.55;;;1.80;;
24008;SDS011;12217;50.792;4.372;2022-07-01T10:13:46;4.10;;;2.30;;
24008;SDS011;12217;50.792;4.372;2022-07-01T10:16:12;3.28;;;2.20;;
24008;SDS011;12217;50.792;4.372;2022-07-01T10:18:39;6.43;;;2.35;;
24008;SDS011;12217;50.792;4.372;2022-07-01T10:21:05;5.22;;;2.63;;
24008;SDS011;12217;50.792;4.372;2022-07-01T10:23:38;6.00;;;2.20;;
24008;SDS011;12217;50.792;4.372;2022-07-01T10:26:06;4.10;;;1.95;;
24008;SDS011;12217;50.792;4.372;2022-07-01T10:31:12;3.85;;;1.90;;
24008;SDS011;12217;50.792;4.372;2022-07-01T10:33:44;3.03;;;1.70;;
24008;SDS011;12217;50.792;4.372;2022-07-01T10:42:10;2.83;;;1.63;;
24008;SDS011;12217;50.792;4.372;2022-07-01T10:44:17;4.20;;;1.60;;
24008;SDS011;12217;50.792;4.372;2022-07-01T10:49:18;2.22;;;1.33;;
24008;SDS011;12217;50.792;4.372;2022-07-01T10:51:54;3.00;;;1.50;;
24008;SDS011;12217;50.792;4.372;2022-07-01T11:02:28;4.43;;;1.48;;
24008;SDS011;12217;50.792;4.372;2022-07-01T11:04:58;4.25;;;1.65;;
24008;SDS011;12217;50.792;4.372;2022-07-01T11:07:31;4.32;;;1.63;;
24008;SDS011;12217;50.792;4.372;2022-07-01T11:09:59;5.15;;;1.90;;
24008;SDS011;12217;50.792;4.372;2022-07-01T11:12:27;2.90;;;1.50;;
24008;SDS011;12217;50.792;4.372;2022-07-01T11:14:54;4.38;;;1.83;;
24008;SDS011;12217;50.792;4.372;2022-07-01T11:17:24;5.75;;;2.33;;
24008;SDS011;12217;50.792;4.372;2022-07-01T11:19:51;2.72;;;1.73;;
24008;SDS011;12217;50.792;4.372;2022-07-01T11:22:23;3.97;;;1.65;;
24008;SDS011;12217;50.792;4.372;2022-07-01T11:24:53;2.50;;;1.48;;
24008;SDS011;12217;50.792;4.372;2022-07-01T11:27:20;7.22;;;1.52;;
24008;SDS011;12217;50.792;4.372;2022-07-01T11:29:56;4.57;;;1.35;;
24008;SDS011;12217;50.792;4.372;2022-07-01T11:32:28;2.20;;;1.40;;
24008;SDS011;12217;50.792;4.372;2022-07-01T11:34:54;4.40;;;1.25;;
24008;SDS011;12217;50.792;4.372;2022-07-01T11:37:20;3.70;;;1.20;;
24008;SDS011;12217;50.792;4.372;2022-07-01T11:40:06;4.35;;;0.93;;
24008;SDS011;12217;50.792;4.372;2022-07-01T11:42:34;2.83;;;1.00;;
24008;SDS011;12217;50.792;4.372;2022-07-01T11:45:00;1.83;;;0.80;;
24008;SDS011;12217;50.792;4.372;2022-07-01T11:47:26;2.55;;;0.85;;
24008;SDS011;12217;50.792;4.372;2022-07-01T11:49:52;3.15;;;0.80;;
24008;SDS011;12217;50.792;4.372;2022-07-01T11:52:19;2.88;;;0.70;;
24008;SDS011;12217;50.792;4.372;2022-07-01T11:54:47;1.55;;;0.80;;
24008;SDS011;12217;50.792;4.372;2022-07-01T11:57:24;2.65;;;0.73;;
24008;SDS011;12217;50.792;4.372;2022-07-01T11:59:52;3.33;;;0.75;;
24008;SDS011;12217;50.792;4.372;2022-07-01T12:02:19;3.10;;;0.80;;
24008;SDS011;12217;50.792;4.372;2022-07-01T12:04:47;1.65;;;0.65;;
24008;SDS011;12217;50.792;4.372;2022-07-01T12:07:15;1.02;;;0.77;;
24008;SDS011;12217;50.792;4.372;2022-07-01T12:09:41;2.95;;;0.90;;
24008;SDS011;12217;50.792;4.372;2022-07-01T12:12:28;2.20;;;0.70;;
24008;SDS011;12217;50.792;4.372;2022-07-01T12:14:55;3.13;;;1.00;;
24008;SDS011;12217;50.792;4.372;2022-07-01T12:17:22;1.77;;;0.80;;
24008;SDS011;12217;50.792;4.372;2022-07-01T12:19:49;2.65;;;0.90;;
24008;SDS011;12217;50.792;4.372;2022-07-01T12:22:25;3.47;;;0.73;;
24008;SDS011;12217;50.792;4.372;2022-07-01T12:25:13;2.65;;;0.85;;
24008;SDS011;12217;50.792;4.372;2022-07-01T12:27:39;2.20;;;0.77;;
24008;SDS011;12217;50.792;4.372;2022-07-01T12:30:07;3.50;;;1.10;;
24008;SDS011;12217;50.792;4.372;2022-07-01T12:32:36;2.85;;;0.90;;
24008;SDS011;12217;50.792;4.372;2022-07-01T12:35:06;2.00;;;0.82;;
24008;SDS011;12217;50.792;4.372;2022-07-01T12:37:59;5.85;;;0.80;;
24008;SDS011;12217;50.792;4.372;2022-07-01T12:40:26;3.45;;;1.10;;
24008;SDS011;12217;50.792;4.372;2022-07-01T12:42:55;4.57;;;0.93;;
24008;SDS011;12217;50.792;4.372;2022-07-01T12:45:24;2.15;;;0.70;;
24008;SDS011;12217;50.792;4.372;2022-07-01T12:47:51;3.05;;;1.10;;
24008;SDS011;12217;50.792;4.372;2022-07-01T12:50:23;2.25;;;0.80;;
24008;SDS011;12217;50.792;4.372;2022-07-01T12:55:33;3.22;;;0.90;;
24008;SDS011;12217;50.792;4.372;2022-07-01T12:58:07;2.20;;;0.70;;
24008;SDS011;12217;50.792;4.372;2022-07-01T13:00:34;2.85;;;0.80;;
24008;SDS011;12217;50.792;4.372;2022-07-01T13:03:01;4.57;;;1.10;;
24008;SDS011;12217;50.792;4.372;2022-07-01T13:05:29;4.30;;;0.90;;
24008;SDS011;12217;50.792;4.372;2022-07-01T13:07:56;6.32;;;1.30;;
24008;SDS011;12217;50.792;4.372;2022-07-01T13:10:22;3.90;;;0.60;;
24008;SDS011;12217;50.792;4.372;2022-07-01T13:12:48;1.70;;;0.70;;
24008;SDS011;12217;50.792;4.372;2022-07-01T13:15:14;1.35;;;0.60;;
24008;SDS011;12217;50.792;4.372;2022-07-01T13:17:41;3.30;;;0.77;;
24008;SDS011;12217;50.792;4.372;2022-07-01T13:20:07;2.25;;;0.70;;
24008;SDS011;12217;50.792;4.372;2022-07-01T13:22:34;6.35;;;0.80;;
24008;SDS011;12217;50.792;4.372;2022-07-01T13:25:00;3.95;;;1.17;;
24008;SDS011;12217;50.792;4.372;2022-07-01T13:27:26;2.20;;;0.70;;
24008;SDS011;12217;50.792;4.372;2022-07-01T13:29:52;1.65;;;0.70;;
24008;SDS011;12217;50.792;4.372;2022-07-01T13:32:18;2.65;;;0.95;;
24008;SDS011;12217;50.792;4.372;2022-07-01T13:34:43;4.60;;;1.13;;
24008;SDS011;12217;50.792;4.372;2022-07-01T13:37:09;2.47;;;0.60;;
24008;SDS011;12217;50.792;4.372;2022-07-01T13:39:35;2.55;;;0.70;;
24008;SDS011;12217;50.792;4.372;2022-07-01T13:42:01;2.50;;;0.68;;
24008;SDS011;12217;50.792;4.372;2022-07-01T13:44:26;2.63;;;0.82;;
24008;SDS011;12217;50.792;4.372;2022-07-01T13:46:53;3.60;;;1.10;;
24008;SDS011;12217;50.792;4.372;2022-07-01T13:49:18;4.95;;;0.80;;
24008;SDS011;12217;50.792;4.372;2022-07-01T13:51:44;3.60;;;0.80;;
24008;SDS011;12217;50.792;4.372;2022-07-01T13:54:10;3.13;;;0.90;;
24008;SDS011;12217;50.792;4.372;2022-07-01T13:56:36;3.25;;;0.90;;
24008;SDS011;12217;50.792;4.372;2022-07-01T13:59:02;2.25;;;0.60;;
24008;SDS011;12217;50.792;4.372;2022-07-01T14:01:27;4.55;;;0.95;;
24008;SDS011;12217;50.792;4.372;2022-07-01T14:03:54;3.28;;;0.90;;
24008;SDS011;12217;50.792;4.372;2022-07-01T14:06:20;3.00;;;0.90;;
24008;SDS011;12217;50.792;4.372;2022-07-01T14:08:45;4.40;;;0.90;;
24008;SDS011;12217;50.792;4.372;2022-07-01T14:11:11;5.50;;;0.80;;
24008;SDS011;12217;50.792;4.372;2022-07-01T14:13:37;3.25;;;0.70;;
24008;SDS011;12217;50.792;4.372;2022-07-01T14:16:05;1.98;;;0.80;;
24008;SDS011;12217;50.792;4.372;2022-07-01T14:18:31;1.48;;;0.70;;
24008;SDS011;12217;50.792;4.372;2022-07-01T14:20:57;1.20;;;0.70;;
24008;SDS011;12217;50.792;4.372;2022-07-01T14:23:23;2.15;;;0.90;;
24008;SDS011;12217;50.792;4.372;2022-07-01T14:25:49;1.02;;;0.75;;
24008;SDS011;12217;50.792;4.372;2022-07-01T14:28:14;3.40;;;0.80;;
24008;SDS011;12217;50.792;4.372;2022-07-01T14:30:40;2.92;;;0.80;;
24008;SDS011;12217;50.792;4.372;2022-07-01T14:33:05;2.33;;;0.65;;
24008;SDS011;12217;50.792;4.372;2022-07-01T14:35:31;2.75;;;0.80;;
24008;SDS011;12217;50.792;4.372;2022-07-01T14:37:57;3.25;;;0.70;;
24008;SDS011;12217;50.792;4.372;2022-07-01T14:40:24;2.67;;;0.70;;
24008;SDS011;12217;50.792;4.372;2022-07-01T14:42:50;2.10;;;0.75;;
24008;SDS011;12217;50.792;4.372;2022-07-01T14:45:16;2.55;;;0.73;;
24008;SDS011;12217;50.792;4.372;2022-07-01T14:47:42;2.05;;;0.80;;
24008;SDS011;12217;50.792;4.372;2022-07-01T14:50:09;3.38;;;0.90;;
24008;SDS011;12217;50.792;4.372;2022-07-01T14:52:36;2.67;;;0.80;;
24008;SDS011;12217;50.792;4.372;2022-07-01T14:55:03;4.82;;;1.10;;
24008;SDS011;12217;50.792;4.372;2022-07-01T14:57:29;2.17;;;0.90;;
24008;SDS011;12217;50.792;4.372;2022-07-01T14:59:55;2.45;;;0.85;;
24008;SDS011;12217;50.792;4.372;2022-07-01T15:02:22;3.42;;;0.90;;
24008;SDS011;12217;50.792;4.372;2022-07-01T15:04:48;3.85;;;0.90;;
24008;SDS011;12217;50.792;4.372;2022-07-01T15:07:14;5.18;;;1.00;;
24008;SDS011;12217;50.792;4.372;2022-07-01T15:09:40;4.13;;;0.90;;
24008;SDS011;12217;50.792;4.372;2022-07-01T15:12:06;4.93;;;1.17;;
24008;SDS011;12217;50.792;4.372;2022-07-01T15:14:32;4.20;;;0.90;;
24008;SDS011;12217;50.792;4.372;2022-07-01T15:16:58;3.60;;;1.10;;
24008;SDS011;12217;50.792;4.372;2022-07-01T15:19:26;3.45;;;1.17;;